St. Day, United Kingdom
Current Conditions -  °F | °C
As of 12:50 PM on Friday 28 Nov 2014 (Local Time) from EGDR Reporting Station
Haze Haze  
Wind Chill: 13°   Ceiling: 1000
Heat Index: 13°   Visibility: 6mi
Dew Point: 11°   Wind: 29mph
Humidity: 88%   Direction: 70°ENE
Pressure: 29.38"   Gusts: 46mph
Location:  50.24°N, 5.19°W
Report Text: EGDR 281250Z 07025G40KT 9999 HZ FEW008 BKN010 13/11 Q0995 GRN NOSIG
Loading
Personal Weather Stations






























Interactive Weather Map New forecast layout! Learn more

10-Day Weather Forecast

Advertisements
Track Severe Weather on mobile